createdAt,value
2016-05-29T00:00:35.901Z,1012.78
2016-05-29T00:01:44.388Z,1012.77
2016-05-29T00:02:35.954Z,1012.75
2016-05-29T00:03:36.018Z,1012.74
2016-05-29T00:04:35.990Z,1012.71
2016-05-29T00:05:36.009Z,1012.75
2016-05-29T00:06:48.764Z,1012.75
2016-05-29T00:07:36.045Z,1012.64
2016-05-29T00:09:01.754Z,1012.63
2016-05-29T00:09:36.098Z,1012.66
2016-05-29T00:10:36.115Z,1012.62
2016-05-29T00:11:36.134Z,1012.63
2016-05-29T00:12:36.152Z,1012.64
2016-05-29T00:13:36.171Z,1012.64
2016-05-29T00:14:36.205Z,1012.67
2016-05-29T00:15:36.222Z,1012.7
2016-05-29T00:16:36.241Z,1012.61
2016-05-29T00:17:36.259Z,1012.62
2016-05-29T00:18:49.015Z,1012.62
2016-05-29T00:19:36.312Z,1012.59
2016-05-29T00:20:37.002Z,1012.54
2016-05-29T00:21:36.349Z,1012.53
2016-05-29T00:22:55.572Z,1012.52
2016-05-29T00:23:36.385Z,1012.48
2016-05-29T00:24:36.419Z,1012.53
2016-05-29T00:25:46.047Z,1012.52
2016-05-29T00:26:46.080Z,1012.58
2016-05-29T00:27:47.507Z,1012.58
2016-05-29T00:28:46.117Z,1012.64
2016-05-29T00:29:46.135Z,1012.59
2016-05-29T00:30:47.579Z,1012.63
2016-05-29T00:31:47.612Z,1012.65
2016-05-29T00:32:46.206Z,1012.63
2016-05-29T00:33:46.224Z,1012.62
2016-05-29T00:34:47.668Z,1012.61
2016-05-29T00:35:47.670Z,1012.58
2016-05-29T00:36:46.295Z,1012.59
2016-05-29T00:37:46.313Z,1012.59
2016-05-29T00:38:46.315Z,1012.59
2016-05-29T00:39:46.334Z,1012.58
2016-05-29T00:41:05.574Z,1012.6
2016-05-29T00:41:46.403Z,1012.56
2016-05-29T00:44:01.661Z,1012.55
2016-05-29T00:45:01.694Z,1012.57
2016-05-29T00:46:01.697Z,1012.58
2016-05-29T00:47:01.731Z,1012.57
2016-05-29T00:48:01.749Z,1012.54
2016-05-29T00:49:01.767Z,1012.55
2016-05-29T00:50:01.786Z,1012.55
2016-05-29T00:51:01.819Z,1012.57
2016-05-29T00:52:01.839Z,1012.56
2016-05-29T00:53:01.903Z,1012.56
2016-05-29T00:54:01.875Z,1012.6
2016-05-29T00:55:01.893Z,1012.61
2016-05-29T00:56:01.911Z,1012.6
2016-05-29T00:57:14.663Z,1012.58
2016-05-29T00:58:01.949Z,1012.57
2016-05-29T00:59:01.982Z,1012.57
2016-05-29T01:00:01.984Z,1012.56
2016-05-29T01:01:02.019Z,1012.49
2016-05-29T01:02:02.037Z,1012.49
2016-05-29T01:03:02.055Z,1012.47
2016-05-29T01:04:02.120Z,1012.46
2016-05-29T01:05:02.107Z,1012.48
2016-05-29T01:06:02.438Z,1012.48
2016-05-29T01:07:02.144Z,1012.47
2016-05-29T01:08:03.568Z,1012.46
2016-05-29T01:09:02.165Z,1012.43
2016-05-29T01:10:02.198Z,1012.43
2016-05-29T01:11:02.217Z,1012.41
2016-05-29T01:12:02.236Z,1012.38
2016-05-29T01:13:02.269Z,1012.4
2016-05-29T01:14:02.287Z,1012.42
2016-05-29T01:15:02.306Z,1012.45
2016-05-29T01:16:02.325Z,1012.44
2016-05-29T01:17:02.342Z,1012.39
2016-05-29T01:18:03.783Z,1012.42
2016-05-29T01:19:02.380Z,1012.41
2016-05-29T01:20:02.397Z,1012.36
2016-05-29T01:21:02.416Z,1012.41
2016-05-29T01:22:02.450Z,1012.4
2016-05-29T01:23:02.483Z,1012.37
2016-05-29T01:24:02.486Z,1012.36
2016-05-29T01:25:02.505Z,1012.31
2016-05-29T01:26:02.524Z,1012.27
2016-05-29T01:27:02.541Z,1012.29
2016-05-29T01:28:02.575Z,1012.23
2016-05-29T01:29:02.594Z,1012.18
2016-05-29T01:30:02.613Z,1012.18
2016-05-29T01:31:02.630Z,1012.16
2016-05-29T01:32:02.649Z,1012.17
2016-05-29T01:33:02.668Z,1012.23
2016-05-29T01:34:02.685Z,1012.19
2016-05-29T01:35:02.704Z,1012.23
2016-05-29T01:36:03.394Z,1012.24
2016-05-29T01:37:02.756Z,1012.2
2016-05-29T01:38:02.774Z,1012.2
2016-05-29T01:39:02.793Z,1012.17
2016-05-29T01:40:02.811Z,1012.12
2016-05-29T01:41:02.829Z,1012.15
2016-05-29T01:42:05.879Z,1012.09
2016-05-29T01:43:02.881Z,1012.14
2016-05-29T01:44:02.884Z,1012.08
2016-05-29T01:45:02.918Z,1012.11
2016-05-29T01:46:02.937Z,1012.09
2016-05-29T01:47:02.955Z,1012.13
2016-05-29T01:48:02.973Z,1012.1
2016-05-29T01:49:02.991Z,1012.1
2016-05-29T01:50:03.009Z,1012.09
2016-05-29T01:51:15.778Z,1012.04
2016-05-29T01:52:15.858Z,1012.09
2016-05-29T01:53:03.080Z,1012.09
2016-05-29T01:54:03.099Z,1012.05
2016-05-29T01:55:03.132Z,1012.1
2016-05-29T01:56:03.135Z,1012.1
2016-05-29T01:57:03.153Z,1012.12
2016-05-29T01:58:03.171Z,1012.1
2016-05-29T01:59:03.191Z,1012.1
2016-05-29T02:00:03.224Z,1012.13
2016-05-29T02:01:03.243Z,1012.12
2016-05-29T02:02:03.260Z,1012.08
2016-05-29T02:03:03.279Z,1012.09
2016-05-29T02:04:03.313Z,1012.09
2016-05-29T02:05:04.738Z,1012.08
2016-05-29T02:06:03.335Z,1012.1
2016-05-29T02:07:03.429Z,1012.13
2016-05-29T02:08:03.387Z,1012.11
2016-05-29T02:09:03.405Z,1012.12
2016-05-29T02:10:03.423Z,1012.09
2016-05-29T02:11:03.440Z,1012.06
2016-05-29T02:12:03.476Z,1012.05
2016-05-29T02:13:16.228Z,1012.06
2016-05-29T02:14:03.496Z,1012.05
2016-05-29T02:15:03.530Z,1012.04
2016-05-29T02:16:22.751Z,1012.04
2016-05-29T02:17:06.707Z,1012.02
2016-05-29T02:18:06.726Z,1012.02
2016-05-29T02:19:06.744Z,1011.99
2016-05-29T02:20:06.762Z,1011.99
2016-05-29T02:21:25.999Z,1011.98
2016-05-29T02:22:06.799Z,1012
2016-05-29T02:23:06.817Z,1012.01
2016-05-29T02:24:26.054Z,1011.97
2016-05-29T02:25:06.869Z,1012.02
2016-05-29T02:26:06.903Z,1011.99
2016-05-29T02:27:19.641Z,1011.94
2016-05-29T02:28:06.924Z,1011.98
2016-05-29T02:29:06.958Z,1011.93
2016-05-29T02:30:06.961Z,1011.99
2016-05-29T02:31:06.979Z,1011.98
2016-05-29T02:32:07.013Z,1011.99
2016-05-29T02:33:07.032Z,1011.97
2016-05-29T02:34:07.050Z,1011.99
2016-05-29T02:35:07.459Z,1011.96
2016-05-29T02:36:07.165Z,1011.98
2016-05-29T02:37:07.120Z,1011.97
2016-05-29T02:38:10.154Z,1011.9
2016-05-29T02:39:07.157Z,1011.89
2016-05-29T02:40:07.159Z,1011.9
2016-05-29T02:41:07.194Z,1011.92
2016-05-29T02:42:07.212Z,1011.92
2016-05-29T02:43:07.231Z,1011.96
2016-05-29T02:44:07.248Z,1011.96
2016-05-29T02:45:07.267Z,1011.99
2016-05-29T02:46:07.285Z,1011.98
2016-05-29T02:47:07.303Z,1012.01
2016-05-29T02:48:07.323Z,1011.98
2016-05-29T02:49:07.356Z,1012
2016-05-29T02:50:07.734Z,1011.99
2016-05-29T02:51:07.486Z,1012.01
2016-05-29T02:52:07.410Z,1011.97
2016-05-29T02:53:07.429Z,1011.97
2016-05-29T02:54:07.447Z,1011.98
2016-05-29T02:55:08.888Z,1011.92
2016-05-29T02:56:07.483Z,1011.9
2016-05-29T02:57:10.534Z,1011.93
2016-05-29T02:58:07.536Z,1011.93
2016-05-29T02:59:07.538Z,1011.92
2016-05-29T03:00:08.995Z,1011.88
2016-05-29T03:01:07.591Z,1011.92
2016-05-29T03:02:07.610Z,1011.83
2016-05-29T03:03:07.627Z,1011.86
2016-05-29T03:04:07.646Z,1011.85
2016-05-29T03:05:07.665Z,1011.87
2016-05-29T03:06:26.901Z,1011.83
2016-05-29T03:07:07.716Z,1011.87
2016-05-29T03:09:07.738Z,1011.87
2016-05-29T03:10:07.771Z,1011.88
2016-05-29T03:11:07.790Z,1011.88
2016-05-29T03:12:07.809Z,1011.86
2016-05-29T03:13:07.826Z,1011.88
2016-05-29T03:14:07.845Z,1011.88
2016-05-29T03:15:07.942Z,1011.87
2016-05-29T03:16:20.616Z,1011.86
2016-05-29T03:17:20.697Z,1011.82
2016-05-29T03:18:07.917Z,1011.86
2016-05-29T03:19:07.952Z,1011.85
2016-05-29T03:20:21.205Z,1011.88
2016-05-29T03:21:07.989Z,1011.83
2016-05-29T03:22:08.006Z,1011.84
2016-05-29T03:23:08.026Z,1011.86
2016-05-29T03:24:08.044Z,1011.85
2016-05-29T03:25:08.436Z,1011.86
2016-05-29T03:26:08.081Z,1011.87
2016-05-29T03:27:08.099Z,1011.84
2016-05-29T03:28:08.164Z,1011.82
2016-05-29T03:29:08.135Z,1011.82
2016-05-29T03:30:08.153Z,1011.82
2016-05-29T03:31:08.188Z,1011.83
2016-05-29T03:32:08.205Z,1011.83
2016-05-29T03:33:27.427Z,1011.86
2016-05-29T03:34:08.243Z,1011.85
2016-05-29T03:35:08.276Z,1011.82
2016-05-29T03:36:09.013Z,1011.82
2016-05-29T03:37:08.297Z,1011.85
2016-05-29T03:38:21.050Z,1011.87
2016-05-29T03:39:08.334Z,1011.86
2016-05-29T03:40:08.368Z,1011.87
2016-05-29T03:41:08.387Z,1011.86
2016-05-29T03:42:08.404Z,1011.86
2016-05-29T03:43:08.423Z,1011.85
2016-05-29T03:44:08.441Z,1011.84
2016-05-29T03:45:08.475Z,1011.88
2016-05-29T03:46:08.478Z,1011.84
2016-05-29T03:47:08.512Z,1011.8
2016-05-29T03:48:08.514Z,1011.79
2016-05-29T03:49:08.548Z,1011.8
2016-05-29T03:50:08.582Z,1011.79
2016-05-29T03:51:08.585Z,1011.8
2016-05-29T03:52:08.603Z,1011.69
2016-05-29T03:53:08.622Z,1011.77
2016-05-29T03:54:08.640Z,1011.8
2016-05-29T03:55:08.674Z,1011.78
2016-05-29T03:56:08.692Z,1011.85
2016-05-29T03:57:08.695Z,1011.8
2016-05-29T03:58:08.713Z,1011.8
2016-05-29T03:59:08.747Z,1011.8
2016-05-29T04:00:08.765Z,1011.78
2016-05-29T04:01:08.784Z,1011.76
2016-05-29T04:02:08.802Z,1011.79
2016-05-29T04:03:08.820Z,1011.76
2016-05-29T04:04:08.839Z,1011.78
2016-05-29T04:05:10.264Z,1011.79
2016-05-29T04:06:08.875Z,1011.77
2016-05-29T04:07:08.893Z,1011.71
2016-05-29T04:08:08.928Z,1011.72
2016-05-29T04:09:08.946Z,1011.69
2016-05-29T04:10:08.964Z,1011.67
2016-05-29T04:11:08.982Z,1011.61
2016-05-29T04:12:09.001Z,1011.59
2016-05-29T04:13:09.019Z,1011.61
2016-05-29T04:15:24.321Z,1011.57
2016-05-29T04:16:24.340Z,1011.55
2016-05-29T04:17:24.358Z,1011.6
2016-05-29T04:18:24.376Z,1011.6
2016-05-29T04:19:24.410Z,1011.63
2016-05-29T04:20:24.554Z,1011.61
2016-05-29T04:21:24.447Z,1011.62
2016-05-29T04:22:24.465Z,1011.63
2016-05-29T04:23:24.500Z,1011.63
2016-05-29T04:25:39.848Z,1011.67
2016-05-29T04:26:39.866Z,1011.7
2016-05-29T04:27:39.886Z,1011.63
2016-05-29T04:28:41.325Z,1011.65
2016-05-29T04:29:39.936Z,1011.69
2016-05-29T04:30:59.161Z,1011.64
2016-05-29T04:31:39.974Z,1011.64
2016-05-29T04:33:55.108Z,1011.64
2016-05-29T04:34:55.125Z,1011.65
2016-05-29T04:35:55.144Z,1011.64
2016-05-29T04:36:55.162Z,1011.63
2016-05-29T04:37:55.179Z,1011.55
2016-05-29T04:39:07.949Z,1011.55
2016-05-29T04:39:55.232Z,1011.51
2016-05-29T04:42:14.471Z,1011.5
2016-05-29T04:42:55.288Z,1011.53
2016-05-29T04:43:55.306Z,1011.52
2016-05-29T04:44:55.323Z,1011.49
2016-05-29T04:45:55.343Z,1011.46
2016-05-29T04:46:58.392Z,1011.46
2016-05-29T04:47:58.426Z,1011.48
2016-05-29T04:48:55.413Z,1011.47
2016-05-29T04:49:55.431Z,1011.52
2016-05-29T04:50:58.496Z,1011.51
2016-05-29T04:51:55.467Z,1011.53
2016-05-29T04:52:55.501Z,1011.52
2016-05-29T04:54:14.723Z,1011.56
2016-05-29T04:54:55.539Z,1011.58
2016-05-29T04:55:55.556Z,1011.57
2016-05-29T04:57:06.903Z,1011.62
2016-05-29T04:58:06.922Z,1011.61
2016-05-29T04:59:19.674Z,1011.61
2016-05-29T05:00:06.958Z,1011.62
2016-05-29T05:01:32.648Z,1011.61
2016-05-29T05:02:16.464Z,1011.62
2016-05-29T05:03:42.153Z,1011.64
2016-05-29T05:04:16.500Z,1011.68
2016-05-29T05:06:33.146Z,1011.72
2016-05-29T05:07:33.164Z,1011.77
2016-05-29T05:08:33.182Z,1011.83
2016-05-29T05:09:52.405Z,1011.84
2016-05-29T05:10:36.454Z,1011.82
2016-05-29T05:11:36.472Z,1011.77
2016-05-29T05:12:36.506Z,1011.73
2016-05-29T05:13:49.243Z,1011.74
2016-05-29T05:14:36.543Z,1011.67
2016-05-29T05:16:02.236Z,1011.68
2016-05-29T05:16:36.580Z,1011.62
2016-05-29T05:18:53.101Z,1011.63
2016-05-29T05:19:53.118Z,1011.63
2016-05-29T05:20:54.562Z,1011.67
2016-05-29T05:21:53.156Z,1011.69
2016-05-29T05:22:56.207Z,1011.67
2016-05-29T05:23:53.192Z,1011.66
2016-05-29T05:24:53.225Z,1011.6
2016-05-29T05:25:53.245Z,1011.52
2016-05-29T05:26:56.421Z,1011.57
2016-05-29T05:27:56.440Z,1011.53
2016-05-29T05:28:56.473Z,1011.57
2016-05-29T05:30:09.226Z,1011.53
2016-05-29T05:30:56.510Z,1011.58
2016-05-29T05:33:13.203Z,1011.55
2016-05-29T05:34:13.221Z,1011.6
2016-05-29T05:35:13.427Z,1011.62
2016-05-29T05:36:13.321Z,1011.64
2016-05-29T05:37:13.277Z,1011.63
2016-05-29T05:38:13.310Z,1011.59
2016-05-29T05:39:13.329Z,1011.61
2016-05-29T05:40:13.457Z,1011.58
2016-05-29T05:41:23.084Z,1011.61
2016-05-29T05:42:48.774Z,1011.61
2016-05-29T05:44:06.904Z,1011.66
2016-05-29T05:45:06.954Z,1011.63
2016-05-29T05:46:06.957Z,1011.65
2016-05-29T05:47:26.178Z,1011.62
2016-05-29T05:48:06.993Z,1011.63
2016-05-29T05:49:07.012Z,1011.6
2016-05-29T05:50:22.311Z,1011.55
2016-05-29T05:51:22.627Z,1011.53
2016-05-29T05:52:22.348Z,1011.49
2016-05-29T05:53:22.366Z,1011.51
2016-05-29T05:54:22.385Z,1011.5
2016-05-29T05:55:41.622Z,1011.56
2016-05-29T05:56:35.170Z,1011.51
2016-05-29T05:57:22.455Z,1011.54
2016-05-29T05:58:22.473Z,1011.58
2016-05-29T05:59:25.476Z,1011.6
2016-05-29T06:00:25.510Z,1011.56
2016-05-29T06:01:25.528Z,1011.58
2016-05-29T06:02:44.749Z,1011.59
2016-05-29T06:03:25.581Z,1011.6
2016-05-29T06:04:25.599Z,1011.54
2016-05-29T06:05:26.195Z,1011.51
2016-05-29T06:06:25.682Z,1011.51
2016-05-29T06:07:25.670Z,1011.51
2016-05-29T06:08:25.688Z,1011.5
2016-05-29T06:09:28.737Z,1011.51
2016-05-29T06:10:25.724Z,1011.47
2016-05-29T06:11:25.743Z,1011.46
2016-05-29T06:12:25.777Z,1011.45
2016-05-29T06:13:25.795Z,1011.5
2016-05-29T06:14:25.813Z,1011.45
2016-05-29T06:15:25.847Z,1011.45
2016-05-29T06:16:38.584Z,1011.44
2016-05-29T06:17:26.040Z,1011.43
2016-05-29T06:18:25.918Z,1011.38
2016-05-29T06:19:25.983Z,1011.38
2016-05-29T06:20:26.532Z,1011.36
2016-05-29T06:21:25.973Z,1011.33
2016-05-29T06:22:25.990Z,1011.37
2016-05-29T06:23:26.009Z,1011.37
2016-05-29T06:24:26.043Z,1011.37
2016-05-29T06:25:26.061Z,1011.33
2016-05-29T06:26:39.720Z,1011.27
2016-05-29T06:27:26.114Z,1011.24
2016-05-29T06:28:26.117Z,1011.27
2016-05-29T06:29:26.150Z,1011.29
2016-05-29T06:30:26.184Z,1011.32
2016-05-29T06:31:26.187Z,1011.29
2016-05-29T06:32:26.206Z,1011.3
2016-05-29T06:33:26.239Z,1011.22
2016-05-29T06:34:26.257Z,1011.25
2016-05-29T06:35:26.292Z,1011.28
2016-05-29T06:36:26.294Z,1011.26
2016-05-29T06:37:26.328Z,1011.23
2016-05-29T06:38:26.346Z,1011.25
2016-05-29T06:39:39.100Z,1011.23
2016-05-29T06:40:26.383Z,1011.25
2016-05-29T06:41:26.416Z,1011.25
2016-05-29T06:42:26.436Z,1011.22
2016-05-29T06:43:26.454Z,1011.24
2016-05-29T06:44:26.503Z,1011.33
2016-05-29T06:45:26.506Z,1011.3
2016-05-29T06:46:26.541Z,1011.28
2016-05-29T06:47:26.543Z,1011.33
2016-05-29T06:48:26.560Z,1011.33
2016-05-29T06:49:26.579Z,1011.36
2016-05-29T06:50:26.628Z,1011.32
2016-05-29T06:51:26.648Z,1011.32
2016-05-29T06:52:26.665Z,1011.31
2016-05-29T06:53:39.418Z,1011.3
2016-05-29T06:54:26.702Z,1011.29
2016-05-29T06:55:26.737Z,1011.2
2016-05-29T06:56:26.739Z,1011.19
2016-05-29T06:57:26.772Z,1011.24
2016-05-29T06:58:26.792Z,1011.2
2016-05-29T06:59:26.809Z,1011.21
2016-05-29T07:00:26.843Z,1011.17
2016-05-29T07:01:26.861Z,1011.18
2016-05-29T07:02:26.880Z,1011.13
2016-05-29T07:03:26.898Z,1011.1
2016-05-29T07:04:26.932Z,1011.15
2016-05-29T07:05:26.966Z,1011.17
2016-05-29T07:06:26.984Z,1011.16
2016-05-29T07:07:26.987Z,1011.13
2016-05-29T07:08:39.739Z,1011.11
2016-05-29T07:09:27.039Z,1011.13
2016-05-29T07:10:27.058Z,1011.11
2016-05-29T07:11:27.076Z,1011.18
2016-05-29T07:12:27.094Z,1011.16
2016-05-29T07:13:27.113Z,1011.16
2016-05-29T07:14:27.146Z,1011.09
2016-05-29T07:15:27.165Z,1011.1
2016-05-29T07:16:27.183Z,1011.11
2016-05-29T07:17:27.201Z,1011.15
2016-05-29T07:18:46.423Z,1011.16
2016-05-29T07:19:27.254Z,1011.2
2016-05-29T07:20:27.272Z,1011.15
2016-05-29T07:21:28.056Z,1011.24
2016-05-29T07:22:46.527Z,1011.2
2016-05-29T07:23:27.326Z,1011.22
2016-05-29T07:24:27.361Z,1011.23
2016-05-29T07:25:46.582Z,1011.24
2016-05-29T07:26:30.570Z,1011.2
2016-05-29T07:27:30.587Z,1011.23
2016-05-29T07:28:30.606Z,1011.25
2016-05-29T07:29:30.640Z,1011.23
2016-05-29T07:30:30.642Z,1011.24
2016-05-29T07:31:30.661Z,1011.26
2016-05-29T07:32:30.695Z,1011.21
2016-05-29T07:33:49.916Z,1011.26
2016-05-29T07:34:30.732Z,1011.23
2016-05-29T07:35:56.422Z,1011.19
2016-05-29T07:36:30.784Z,1011.17
2016-05-29T07:38:46.038Z,1011.22
2016-05-29T07:39:46.058Z,1011.16
2016-05-29T07:40:46.075Z,1011.18
2016-05-29T07:41:46.094Z,1011.16
2016-05-29T07:42:46.112Z,1011.23
2016-05-29T07:43:46.147Z,1011.18
2016-05-29T07:44:46.165Z,1011.19
2016-05-29T07:46:05.389Z,1011.2
2016-05-29T07:46:46.311Z,1011.24
2016-05-29T07:49:01.506Z,1011.21
2016-05-29T07:50:01.509Z,1011.24
2016-05-29T07:51:01.543Z,1011.26
2016-05-29T07:52:07.826Z,1011.16
2016-05-29T07:53:01.626Z,1011.16
2016-05-29T07:54:01.598Z,1011.14
2016-05-29T07:55:01.632Z,1011.1
2016-05-29T07:57:16.903Z,1011.11
2016-05-29T07:58:16.937Z,1011.08
2016-05-29T07:59:16.955Z,1011.12
2016-05-29T08:00:16.973Z,1011.12
2016-05-29T08:01:16.992Z,1011.14
2016-05-29T08:02:17.010Z,1011.1
2016-05-29T08:03:17.044Z,1011.11
2016-05-29T08:04:17.061Z,1011.06
2016-05-29T08:05:17.080Z,1011.08
2016-05-29T08:06:17.083Z,1011.1
2016-05-29T08:07:17.133Z,1011.11
2016-05-29T08:08:17.135Z,1011.11
2016-05-29T08:09:17.169Z,1011.09
2016-05-29T08:10:17.188Z,1011.12
2016-05-29T08:11:17.206Z,1011.06
2016-05-29T08:12:17.224Z,1011.06
2016-05-29T08:13:17.243Z,1011.04
2016-05-29T08:14:17.276Z,1011.04
2016-05-29T08:15:17.295Z,1011.04
2016-05-29T08:16:17.313Z,1011.01
2016-05-29T08:17:17.331Z,1011.06
2016-05-29T08:18:17.350Z,1011.03
2016-05-29T08:19:17.384Z,1011.07
2016-05-29T08:20:17.402Z,1011
2016-05-29T08:21:17.404Z,1011
2016-05-29T08:22:17.439Z,1011.01
2016-05-29T08:23:17.457Z,1010.97
2016-05-29T08:24:17.476Z,1010.98
2016-05-29T08:25:17.509Z,1011
2016-05-29T08:26:17.512Z,1011
2016-05-29T08:27:17.584Z,1011.03
2016-05-29T08:28:36.812Z,1011.05
2016-05-29T08:29:17.649Z,1010.99
2016-05-29T08:30:17.705Z,1010.95
2016-05-29T08:31:17.731Z,1011.03
2016-05-29T08:33:33.049Z,1010.97
2016-05-29T08:34:33.060Z,1010.96
2016-05-29T08:35:33.102Z,1010.95
2016-05-29T08:36:33.128Z,1010.92
2016-05-29T08:37:47.040Z,1010.86
2016-05-29T08:38:33.186Z,1010.84
2016-05-29T08:39:33.208Z,1010.9
2016-05-29T08:40:33.230Z,1010.95
2016-05-29T08:41:33.250Z,1011.01
2016-05-29T08:42:33.270Z,1010.95
2016-05-29T08:43:33.288Z,1010.95
2016-05-29T08:44:33.324Z,1010.97
2016-05-29T08:45:33.342Z,1010.94
2016-05-29T08:46:46.111Z,1010.92
2016-05-29T08:47:33.395Z,1010.91
2016-05-29T08:48:33.415Z,1010.97
2016-05-29T08:49:33.433Z,1010.9
2016-05-29T08:50:33.452Z,1010.93
2016-05-29T08:51:33.877Z,1010.95
2016-05-29T08:52:33.505Z,1010.95
2016-05-29T08:53:33.524Z,1010.95
2016-05-29T08:54:52.745Z,1010.98
2016-05-29T08:55:33.562Z,1011.01
2016-05-29T08:56:33.579Z,1010.96
2016-05-29T08:57:35.004Z,1011.02
2016-05-29T08:58:46.351Z,1010.97
2016-05-29T08:59:33.650Z,1010.95
2016-05-29T09:00:33.653Z,1010.91
2016-05-29T09:01:33.687Z,1010.89
2016-05-29T09:02:35.175Z,1010.81
2016-05-29T09:03:33.770Z,1010.72
2016-05-29T09:04:33.758Z,1010.78
2016-05-29T09:05:33.775Z,1010.72
2016-05-29T09:06:33.794Z,1010.74
2016-05-29T09:07:35.219Z,1010.72
2016-05-29T09:08:59.505Z,1010.78
2016-05-29T09:09:43.489Z,1010.8
2016-05-29T09:10:43.524Z,1010.73
2016-05-29T09:11:46.557Z,1010.78
2016-05-29T09:12:43.561Z,1010.77
2016-05-29T09:13:43.579Z,1010.71
2016-05-29T09:14:43.597Z,1010.76
2016-05-29T09:15:56.349Z,1010.73
2016-05-29T09:16:43.649Z,1010.68
2016-05-29T09:17:43.886Z,1010.75
2016-05-29T09:19:09.360Z,1010.62
2016-05-29T09:19:43.704Z,1010.63
2016-05-29T09:21:43.757Z,1010.64
2016-05-29T09:22:44.446Z,1010.69
2016-05-29T09:23:43.809Z,1010.68
2016-05-29T09:24:43.812Z,1010.75
2016-05-29T09:25:43.829Z,1010.7
2016-05-29T09:26:43.864Z,1010.7
2016-05-29T09:27:43.960Z,1010.79
2016-05-29T09:28:43.900Z,1010.77
2016-05-29T09:29:56.653Z,1010.79
2016-05-29T09:30:43.953Z,1010.83
2016-05-29T09:31:43.955Z,1010.8
2016-05-29T09:32:52.426Z,1010.83
2016-05-29T09:33:44.023Z,1010.81
2016-05-29T09:34:44.042Z,1010.82
2016-05-29T09:35:45.466Z,1010.82
2016-05-29T09:36:56.812Z,1010.82
2016-05-29T09:37:45.565Z,1010.81
2016-05-29T09:38:44.130Z,1010.8
2016-05-29T09:39:44.149Z,1010.85
2016-05-29T09:40:44.213Z,1010.93
2016-05-29T09:41:44.185Z,1010.81
2016-05-29T09:42:44.235Z,1010.8
2016-05-29T09:43:44.238Z,1010.84
2016-05-29T09:44:44.255Z,1010.81
2016-05-29T09:45:44.290Z,1010.79
2016-05-29T09:46:45.714Z,1010.8
2016-05-29T09:48:03.532Z,1010.84
2016-05-29T09:48:44.344Z,1010.86
2016-05-29T09:49:44.363Z,1010.94
2016-05-29T09:50:44.585Z,1010.86
2016-05-29T09:51:44.524Z,1010.83
2016-05-29T09:52:57.168Z,1010.77
2016-05-29T09:53:44.561Z,1010.79
2016-05-29T09:55:03.692Z,1010.8
2016-05-29T09:55:44.504Z,1010.82
2016-05-29T09:56:44.538Z,1010.85
2016-05-29T09:57:47.290Z,1010.88
2016-05-29T09:58:44.575Z,1010.86
2016-05-29T09:59:44.609Z,1010.84
2016-05-29T10:00:44.611Z,1010.88
2016-05-29T10:01:44.630Z,1010.9
2016-05-29T10:02:47.695Z,1010.87
2016-05-29T10:03:44.682Z,1010.9
2016-05-29T10:04:44.700Z,1010.9
2016-05-29T10:05:44.811Z,1010.88
2016-05-29T10:06:44.753Z,1010.89
2016-05-29T10:07:44.770Z,1010.91
2016-05-29T10:08:44.789Z,1010.88
2016-05-29T10:09:44.807Z,1010.91
2016-05-29T10:10:44.842Z,1010.96
2016-05-29T10:11:44.860Z,1010.93
2016-05-29T10:12:47.144Z,1010.87
2016-05-29T10:13:44.896Z,1010.95
2016-05-29T10:14:44.930Z,1010.91
2016-05-29T10:15:44.933Z,1010.87
2016-05-29T10:16:44.966Z,1010.91
2016-05-29T10:17:46.001Z,1010.89
2016-05-29T10:18:45.018Z,1010.85
2016-05-29T10:19:45.022Z,1010.83
2016-05-29T10:20:45.040Z,1010.8
2016-05-29T10:21:45.074Z,1010.77
2016-05-29T10:22:45.107Z,1010.75
2016-05-29T10:23:45.127Z,1010.72
2016-05-29T10:24:45.129Z,1010.73
2016-05-29T10:25:45.162Z,1010.71
2016-05-29T10:26:45.182Z,1010.66
2016-05-29T10:27:45.199Z,1010.65
2016-05-29T10:28:45.218Z,1010.63
2016-05-29T10:30:04.457Z,1010.61
2016-05-29T10:30:45.270Z,1010.58
2016-05-29T10:31:45.289Z,1010.6
2016-05-29T10:32:46.759Z,1010.59
2016-05-29T10:33:45.325Z,1010.61
2016-05-29T10:34:45.359Z,1010.6
2016-05-29T10:35:45.378Z,1010.55
2016-05-29T10:36:45.489Z,1010.57
2016-05-29T10:37:47.289Z,1010.57
2016-05-29T10:38:45.447Z,1010.61
2016-05-29T10:39:45.466Z,1010.56
2016-05-29T10:40:45.484Z,1010.54
2016-05-29T10:41:58.253Z,1010.52
2016-05-29T10:42:48.411Z,1010.52
2016-05-29T10:43:45.555Z,1010.5
2016-05-29T10:44:45.574Z,1010.51
2016-05-29T10:45:45.591Z,1010.46
2016-05-29T10:46:45.625Z,1010.47
2016-05-29T10:47:47.957Z,1010.43
2016-05-29T10:48:45.663Z,1010.42
2016-05-29T10:49:45.680Z,1010.44
2016-05-29T10:50:45.715Z,1010.43
2016-05-29T10:51:45.733Z,1010.41
2016-05-29T10:52:46.548Z,1010.44
2016-05-29T10:53:45.769Z,1010.45
2016-05-29T10:54:45.804Z,1010.43
2016-05-29T10:55:45.821Z,1010.46
2016-05-29T10:56:45.840Z,1010.38
2016-05-29T10:57:46.687Z,1010.39
2016-05-29T10:58:45.892Z,1010.42
2016-05-29T10:59:45.926Z,1010.35
2016-05-29T11:00:45.929Z,1010.38
2016-05-29T11:01:45.963Z,1010.33
2016-05-29T11:02:49.075Z,1010.37
2016-05-29T11:03:46.000Z,1010.34
2016-05-29T11:04:46.034Z,1010.26
2016-05-29T11:05:46.067Z,1010.34
2016-05-29T11:06:46.320Z,1010.4
2016-05-29T11:07:46.292Z,1010.35
2016-05-29T11:08:46.263Z,1010.28
2016-05-29T11:09:46.234Z,1010.35
2016-05-29T11:10:46.269Z,1010.24
2016-05-29T11:11:46.396Z,1010.28
2016-05-29T11:12:48.180Z,1010.21
2016-05-29T11:13:46.292Z,1010.22
2016-05-29T11:14:46.654Z,1010.2
2016-05-29T11:15:46.328Z,1010.26
2016-05-29T11:16:46.768Z,1010.22
2016-05-29T11:17:46.318Z,1010.12
2016-05-29T11:18:46.493Z,1010.14
2016-05-29T11:19:46.355Z,1010.12
2016-05-29T11:20:46.529Z,1010.09
2016-05-29T11:21:46.391Z,1010.09
2016-05-29T11:22:46.472Z,1010.09
2016-05-29T11:23:46.444Z,1010.1
2016-05-29T11:24:46.462Z,1010.02
2016-05-29T11:25:46.496Z,1010.07
2016-05-29T11:26:46.514Z,1010.01
2016-05-29T11:27:47.033Z,1009.97
2016-05-29T11:28:46.551Z,1009.97
2016-05-29T11:29:46.584Z,1009.97
2016-05-29T11:30:46.604Z,1010.02
2016-05-29T11:31:46.637Z,1009.96
2016-05-29T11:32:47.124Z,1009.98
2016-05-29T11:33:46.658Z,1009.94
2016-05-29T11:34:46.692Z,1010.01
2016-05-29T11:35:46.726Z,1009.94
2016-05-29T11:36:46.745Z,1009.96
2016-05-29T11:37:46.762Z,1009.91
2016-05-29T11:38:46.781Z,1009.91
2016-05-29T11:39:46.799Z,1009.95
2016-05-29T11:40:46.834Z,1009.9
2016-05-29T11:41:46.852Z,1009.94
2016-05-29T11:42:47.698Z,1009.94
2016-05-29T11:43:46.903Z,1009.84
2016-05-29T11:44:46.922Z,1009.85
2016-05-29T11:45:46.941Z,1009.8
2016-05-29T11:46:46.958Z,1009.83
2016-05-29T11:47:49.868Z,1009.8
2016-05-29T11:48:47.011Z,1009.8
2016-05-29T11:49:47.029Z,1009.77
2016-05-29T11:50:47.172Z,1009.81
2016-05-29T11:51:47.082Z,1009.85
2016-05-29T11:52:48.396Z,1009.88
2016-05-29T11:53:47.118Z,1009.87
2016-05-29T11:54:47.152Z,1009.88
2016-05-29T11:55:59.905Z,1009.88
2016-05-29T11:56:47.204Z,1009.83
2016-05-29T11:58:12.882Z,1009.83
2016-05-29T11:58:47.241Z,1009.8
2016-05-29T11:59:47.259Z,1009.81
2016-05-29T12:00:47.278Z,1009.82
2016-05-29T12:01:47.312Z,1009.76
2016-05-29T12:03:06.536Z,1009.75
2016-05-29T12:03:47.348Z,1009.72
2016-05-29T12:04:47.382Z,1009.7
2016-05-29T12:05:47.823Z,1009.75
2016-05-29T12:06:47.419Z,1009.72
2016-05-29T12:07:48.656Z,1009.78
2016-05-29T12:08:47.471Z,1009.68
2016-05-29T12:09:47.489Z,1009.72
2016-05-29T12:10:47.523Z,1009.69
2016-05-29T12:11:47.542Z,1009.66
2016-05-29T12:12:49.028Z,1009.61
2016-05-29T12:13:47.594Z,1009.63
2016-05-29T12:14:47.612Z,1009.64
2016-05-29T12:15:47.647Z,1009.65
2016-05-29T12:16:47.664Z,1009.64
2016-05-29T12:17:49.011Z,1009.68
2016-05-29T12:19:06.922Z,1009.67
2016-05-29T12:19:47.719Z,1009.68
2016-05-29T12:22:06.977Z,1009.7
2016-05-29T12:22:49.618Z,1009.69
2016-05-29T12:23:47.808Z,1009.67
2016-05-29T12:24:47.888Z,1009.71
2016-05-29T12:25:47.861Z,1009.61
2016-05-29T12:26:47.879Z,1009.61
2016-05-29T12:27:48.959Z,1009.59
2016-05-29T12:28:47.915Z,1009.62